sensor_id;sensor_type;location;lat;lon;timestamp;P1;durP1;ratioP1;P2;durP2;ratioP2
53145;SDS011;39042;53.150;5.898;2024-03-22T00:01:40;44.45;;;24.15;;
53145;SDS011;39042;53.150;5.898;2024-03-22T00:04:06;42.97;;;24.42;;
53145;SDS011;39042;53.150;5.898;2024-03-22T00:06:32;50.63;;;26.03;;
53145;SDS011;39042;53.150;5.898;2024-03-22T00:08:58;47.27;;;26.33;;
53145;SDS011;39042;53.150;5.898;2024-03-22T00:11:24;46.73;;;27.20;;
53145;SDS011;39042;53.150;5.898;2024-03-22T00:13:50;47.13;;;27.23;;
53145;SDS011;39042;53.150;5.898;2024-03-22T00:16:16;45.80;;;25.23;;
53145;SDS011;39042;53.150;5.898;2024-03-22T00:18:42;48.87;;;25.80;;
53145;SDS011;39042;53.150;5.898;2024-03-22T00:21:07;48.50;;;26.83;;
53145;SDS011;39042;53.150;5.898;2024-03-22T00:23:33;49.10;;;27.40;;
53145;SDS011;39042;53.150;5.898;2024-03-22T00:25:59;50.87;;;28.17;;
53145;SDS011;39042;53.150;5.898;2024-03-22T00:28:25;50.77;;;27.77;;
53145;SDS011;39042;53.150;5.898;2024-03-22T00:30:51;53.93;;;28.73;;
53145;SDS011;39042;53.150;5.898;2024-03-22T00:33:16;52.33;;;28.03;;
53145;SDS011;39042;53.150;5.898;2024-03-22T00:35:42;49.90;;;27.80;;
53145;SDS011;39042;53.150;5.898;2024-03-22T00:38:08;54.77;;;28.23;;
53145;SDS011;39042;53.150;5.898;2024-03-22T00:40:35;63.95;;;29.60;;
53145;SDS011;39042;53.150;5.898;2024-03-22T00:43:00;55.87;;;29.37;;
53145;SDS011;39042;53.150;5.898;2024-03-22T00:45:26;60.90;;;29.07;;
53145;SDS011;39042;53.150;5.898;2024-03-22T00:47:52;55.97;;;29.13;;
53145;SDS011;39042;53.150;5.898;2024-03-22T00:50:18;60.13;;;30.87;;
53145;SDS011;39042;53.150;5.898;2024-03-22T00:52:44;65.38;;;30.52;;
53145;SDS011;39042;53.150;5.898;2024-03-22T00:55:09;63.23;;;31.60;;
53145;SDS011;39042;53.150;5.898;2024-03-22T00:57:35;68.10;;;31.47;;
53145;SDS011;39042;53.150;5.898;2024-03-22T01:00:01;65.23;;;31.50;;
53145;SDS011;39042;53.150;5.898;2024-03-22T01:02:27;68.43;;;31.83;;
53145;SDS011;39042;53.150;5.898;2024-03-22T01:04:53;73.60;;;32.53;;
53145;SDS011;39042;53.150;5.898;2024-03-22T01:07:19;67.78;;;31.90;;
53145;SDS011;39042;53.150;5.898;2024-03-22T01:09:44;73.97;;;33.07;;
53145;SDS011;39042;53.150;5.898;2024-03-22T01:12:10;68.63;;;34.23;;
53145;SDS011;39042;53.150;5.898;2024-03-22T01:14:36;61.73;;;32.73;;
53145;SDS011;39042;53.150;5.898;2024-03-22T01:17:02;71.50;;;33.43;;
53145;SDS011;39042;53.150;5.898;2024-03-22T01:19:28;71.47;;;33.70;;
53145;SDS011;39042;53.150;5.898;2024-03-22T01:21:53;74.93;;;32.37;;
53145;SDS011;39042;53.150;5.898;2024-03-22T01:24:19;79.60;;;34.57;;
53145;SDS011;39042;53.150;5.898;2024-03-22T01:26:45;71.43;;;32.17;;
53145;SDS011;39042;53.150;5.898;2024-03-22T01:29:11;72.40;;;33.77;;
53145;SDS011;39042;53.150;5.898;2024-03-22T01:31:39;78.20;;;33.65;;
53145;SDS011;39042;53.150;5.898;2024-03-22T01:34:04;81.87;;;34.93;;
53145;SDS011;39042;53.150;5.898;2024-03-22T01:36:30;81.40;;;35.20;;
53145;SDS011;39042;53.150;5.898;2024-03-22T01:38:56;71.15;;;32.53;;
53145;SDS011;39042;53.150;5.898;2024-03-22T01:41:25;73.93;;;34.33;;
53145;SDS011;39042;53.150;5.898;2024-03-22T01:43:50;77.60;;;33.20;;
53145;SDS011;39042;53.150;5.898;2024-03-22T01:46:16;80.37;;;35.17;;
53145;SDS011;39042;53.150;5.898;2024-03-22T01:48:42;76.60;;;32.87;;
53145;SDS011;39042;53.150;5.898;2024-03-22T01:51:08;78.23;;;33.07;;
53145;SDS011;39042;53.150;5.898;2024-03-22T01:56:01;76.53;;;33.90;;
53145;SDS011;39042;53.150;5.898;2024-03-22T01:58:27;74.78;;;32.03;;
53145;SDS011;39042;53.150;5.898;2024-03-22T02:00:55;77.35;;;32.33;;
53145;SDS011;39042;53.150;5.898;2024-03-22T02:03:21;74.07;;;32.77;;
53145;SDS011;39042;53.150;5.898;2024-03-22T02:05:47;75.63;;;31.47;;
53145;SDS011;39042;53.150;5.898;2024-03-22T02:08:13;73.73;;;33.90;;
53145;SDS011;39042;53.150;5.898;2024-03-22T02:10:39;72.50;;;32.10;;
53145;SDS011;39042;53.150;5.898;2024-03-22T02:13:05;76.95;;;33.42;;
53145;SDS011;39042;53.150;5.898;2024-03-22T02:15:30;74.37;;;31.13;;
53145;SDS011;39042;53.150;5.898;2024-03-22T02:17:56;73.23;;;32.90;;
53145;SDS011;39042;53.150;5.898;2024-03-22T02:20:22;74.97;;;31.67;;
53145;SDS011;39042;53.150;5.898;2024-03-22T02:22:48;72.47;;;32.27;;
53145;SDS011;39042;53.150;5.898;2024-03-22T02:25:13;74.17;;;31.27;;
53145;SDS011;39042;53.150;5.898;2024-03-22T02:27:40;73.57;;;31.87;;
53145;SDS011;39042;53.150;5.898;2024-03-22T02:30:06;75.63;;;32.08;;
53145;SDS011;39042;53.150;5.898;2024-03-22T02:32:32;70.68;;;32.30;;
53145;SDS011;39042;53.150;5.898;2024-03-22T02:34:58;84.63;;;35.20;;
53145;SDS011;39042;53.150;5.898;2024-03-22T02:37:24;74.47;;;33.17;;
53145;SDS011;39042;53.150;5.898;2024-03-22T02:39:50;76.73;;;33.57;;
53145;SDS011;39042;53.150;5.898;2024-03-22T02:42:15;79.80;;;33.47;;
53145;SDS011;39042;53.150;5.898;2024-03-22T02:44:41;79.17;;;33.50;;
53145;SDS011;39042;53.150;5.898;2024-03-22T02:47:10;76.07;;;31.80;;
53145;SDS011;39042;53.150;5.898;2024-03-22T02:49:37;74.70;;;32.60;;
53145;SDS011;39042;53.150;5.898;2024-03-22T02:52:04;74.88;;;31.98;;
53145;SDS011;39042;53.150;5.898;2024-03-22T02:54:30;70.32;;;30.88;;
53145;SDS011;39042;53.150;5.898;2024-03-22T02:56:56;76.00;;;31.73;;
53145;SDS011;39042;53.150;5.898;2024-03-22T02:59:22;75.28;;;31.20;;
53145;SDS011;39042;53.150;5.898;2024-03-22T03:01:51;81.15;;;31.80;;
53145;SDS011;39042;53.150;5.898;2024-03-22T03:04:17;73.57;;;30.00;;
53145;SDS011;39042;53.150;5.898;2024-03-22T03:06:43;74.57;;;31.13;;
53145;SDS011;39042;53.150;5.898;2024-03-22T03:09:11;74.25;;;31.90;;
53145;SDS011;39042;53.150;5.898;2024-03-22T03:11:40;70.90;;;30.02;;
53145;SDS011;39042;53.150;5.898;2024-03-22T03:14:06;67.82;;;29.63;;
53145;SDS011;39042;53.150;5.898;2024-03-22T03:16:32;68.50;;;29.00;;
53145;SDS011;39042;53.150;5.898;2024-03-22T03:18:58;75.27;;;29.80;;
53145;SDS011;39042;53.150;5.898;2024-03-22T03:21:24;71.95;;;32.20;;
53145;SDS011;39042;53.150;5.898;2024-03-22T03:23:49;77.27;;;30.10;;
53145;SDS011;39042;53.150;5.898;2024-03-22T03:26:15;75.67;;;30.80;;
53145;SDS011;39042;53.150;5.898;2024-03-22T03:28:41;71.55;;;30.75;;
53145;SDS011;39042;53.150;5.898;2024-03-22T03:31:07;73.37;;;31.37;;
53145;SDS011;39042;53.150;5.898;2024-03-22T03:33:33;69.57;;;30.83;;
53145;SDS011;39042;53.150;5.898;2024-03-22T03:35:59;67.93;;;30.20;;
53145;SDS011;39042;53.150;5.898;2024-03-22T03:38:24;72.10;;;30.03;;
53145;SDS011;39042;53.150;5.898;2024-03-22T03:40:50;68.50;;;29.17;;
53145;SDS011;39042;53.150;5.898;2024-03-22T03:43:16;61.47;;;28.17;;
53145;SDS011;39042;53.150;5.898;2024-03-22T03:45:42;66.77;;;30.60;;
53145;SDS011;39042;53.150;5.898;2024-03-22T03:48:07;66.67;;;29.67;;
53145;SDS011;39042;53.150;5.898;2024-03-22T03:50:33;72.00;;;30.40;;
53145;SDS011;39042;53.150;5.898;2024-03-22T03:52:59;66.27;;;30.13;;
53145;SDS011;39042;53.150;5.898;2024-03-22T03:55:25;66.23;;;29.57;;
53145;SDS011;39042;53.150;5.898;2024-03-22T03:57:51;63.45;;;27.90;;
53145;SDS011;39042;53.150;5.898;2024-03-22T04:00:19;61.80;;;28.40;;
53145;SDS011;39042;53.150;5.898;2024-03-22T04:02:45;72.85;;;29.08;;
53145;SDS011;39042;53.150;5.898;2024-03-22T04:05:11;71.70;;;29.02;;
53145;SDS011;39042;53.150;5.898;2024-03-22T04:07:37;63.97;;;27.00;;
53145;SDS011;39042;53.150;5.898;2024-03-22T04:10:05;67.93;;;28.05;;
53145;SDS011;39042;53.150;5.898;2024-03-22T04:12:31;72.53;;;28.73;;
53145;SDS011;39042;53.150;5.898;2024-03-22T04:14:57;64.70;;;28.37;;
53145;SDS011;39042;53.150;5.898;2024-03-22T04:17:22;71.50;;;29.50;;
53145;SDS011;39042;53.150;5.898;2024-03-22T04:19:49;65.27;;;27.20;;
53145;SDS011;39042;53.150;5.898;2024-03-22T04:22:15;65.78;;;25.80;;
53145;SDS011;39042;53.150;5.898;2024-03-22T04:24:40;50.00;;;25.77;;
53145;SDS011;39042;53.150;5.898;2024-03-22T04:27:06;60.13;;;26.47;;
53145;SDS011;39042;53.150;5.898;2024-03-22T04:29:32;62.92;;;24.83;;
53145;SDS011;39042;53.150;5.898;2024-03-22T04:31:58;66.00;;;25.13;;
53145;SDS011;39042;53.150;5.898;2024-03-22T04:34:24;60.83;;;25.23;;
53145;SDS011;39042;53.150;5.898;2024-03-22T04:36:50;60.23;;;24.43;;
53145;SDS011;39042;53.150;5.898;2024-03-22T04:39:18;60.40;;;24.48;;
53145;SDS011;39042;53.150;5.898;2024-03-22T04:41:47;56.97;;;23.52;;
53145;SDS011;39042;53.150;5.898;2024-03-22T04:44:13;53.40;;;23.87;;
53145;SDS011;39042;53.150;5.898;2024-03-22T04:46:39;55.55;;;23.85;;
53145;SDS011;39042;53.150;5.898;2024-03-22T04:49:05;51.07;;;23.20;;
53145;SDS011;39042;53.150;5.898;2024-03-22T04:51:30;50.47;;;22.23;;
53145;SDS011;39042;53.150;5.898;2024-03-22T04:53:56;53.07;;;20.90;;
53145;SDS011;39042;53.150;5.898;2024-03-22T04:56:22;49.00;;;20.93;;
53145;SDS011;39042;53.150;5.898;2024-03-22T04:58:48;52.40;;;21.73;;
53145;SDS011;39042;53.150;5.898;2024-03-22T05:01:13;55.57;;;20.50;;
53145;SDS011;39042;53.150;5.898;2024-03-22T05:03:39;48.20;;;20.52;;
53145;SDS011;39042;53.150;5.898;2024-03-22T05:06:06;54.15;;;19.80;;
53145;SDS011;39042;53.150;5.898;2024-03-22T05:08:32;45.50;;;20.02;;
53145;SDS011;39042;53.150;5.898;2024-03-22T05:10:58;45.45;;;19.20;;
53145;SDS011;39042;53.150;5.898;2024-03-22T05:13:24;46.92;;;19.70;;
53145;SDS011;39042;53.150;5.898;2024-03-22T05:15:50;49.83;;;18.70;;
53145;SDS011;39042;53.150;5.898;2024-03-22T05:18:15;41.53;;;16.80;;
53145;SDS011;39042;53.150;5.898;2024-03-22T05:20:41;45.43;;;18.17;;
53145;SDS011;39042;53.150;5.898;2024-03-22T05:23:07;44.13;;;17.90;;
53145;SDS011;39042;53.150;5.898;2024-03-22T05:25:33;45.20;;;17.93;;
53145;SDS011;39042;53.150;5.898;2024-03-22T05:27:59;52.60;;;17.83;;
53145;SDS011;39042;53.150;5.898;2024-03-22T05:30:24;44.07;;;16.50;;
53145;SDS011;39042;53.150;5.898;2024-03-22T05:32:50;42.57;;;16.47;;
53145;SDS011;39042;53.150;5.898;2024-03-22T05:35:16;44.37;;;16.10;;
53145;SDS011;39042;53.150;5.898;2024-03-22T05:37:43;40.80;;;16.38;;
53145;SDS011;39042;53.150;5.898;2024-03-22T05:40:09;50.70;;;18.33;;
53145;SDS011;39042;53.150;5.898;2024-03-22T05:42:35;42.47;;;16.95;;
53145;SDS011;39042;53.150;5.898;2024-03-22T05:45:01;43.40;;;15.83;;
53145;SDS011;39042;53.150;5.898;2024-03-22T05:47:28;45.00;;;16.25;;
53145;SDS011;39042;53.150;5.898;2024-03-22T05:49:56;40.38;;;15.30;;
53145;SDS011;39042;53.150;5.898;2024-03-22T05:52:22;43.05;;;15.63;;
53145;SDS011;39042;53.150;5.898;2024-03-22T05:54:48;35.58;;;15.20;;
53145;SDS011;39042;53.150;5.898;2024-03-22T05:57:14;44.53;;;14.33;;
53145;SDS011;39042;53.150;5.898;2024-03-22T05:59:40;34.87;;;15.00;;
53145;SDS011;39042;53.150;5.898;2024-03-22T06:02:06;41.77;;;15.57;;
53145;SDS011;39042;53.150;5.898;2024-03-22T06:04:31;33.85;;;15.50;;
53145;SDS011;39042;53.150;5.898;2024-03-22T06:06:57;46.13;;;15.87;;
53145;SDS011;39042;53.150;5.898;2024-03-22T06:09:25;36.40;;;15.40;;
53145;SDS011;39042;53.150;5.898;2024-03-22T06:12:21;32.65;;;13.35;;
53145;SDS011;39042;53.150;5.898;2024-03-22T06:14:47;33.53;;;14.93;;
53145;SDS011;39042;53.150;5.898;2024-03-22T06:17:13;36.10;;;13.93;;
53145;SDS011;39042;53.150;5.898;2024-03-22T06:19:40;35.97;;;13.55;;
53145;SDS011;39042;53.150;5.898;2024-03-22T06:22:06;36.43;;;14.50;;
53145;SDS011;39042;53.150;5.898;2024-03-22T06:24:32;28.90;;;13.57;;
53145;SDS011;39042;53.150;5.898;2024-03-22T06:26:58;38.00;;;13.53;;
53145;SDS011;39042;53.150;5.898;2024-03-22T06:29:23;30.97;;;13.93;;
53145;SDS011;39042;53.150;5.898;2024-03-22T06:31:49;34.30;;;14.03;;
53145;SDS011;39042;53.150;5.898;2024-03-22T06:34:17;38.50;;;15.80;;
53145;SDS011;39042;53.150;5.898;2024-03-22T06:36:43;35.80;;;14.27;;
53145;SDS011;39042;53.150;5.898;2024-03-22T06:39:09;37.53;;;14.37;;
53145;SDS011;39042;53.150;5.898;2024-03-22T06:41:35;35.67;;;13.95;;
53145;SDS011;39042;53.150;5.898;2024-03-22T06:44:01;34.22;;;14.77;;
53145;SDS011;39042;53.150;5.898;2024-03-22T06:46:27;36.80;;;13.90;;
53145;SDS011;39042;53.150;5.898;2024-03-22T06:48:53;35.25;;;14.55;;
53145;SDS011;39042;53.150;5.898;2024-03-22T06:51:19;40.50;;;15.90;;
53145;SDS011;39042;53.150;5.898;2024-03-22T06:53:45;38.13;;;15.40;;
53145;SDS011;39042;53.150;5.898;2024-03-22T06:56:13;37.45;;;14.85;;
53145;SDS011;39042;53.150;5.898;2024-03-22T06:58:39;43.75;;;16.05;;
53145;SDS011;39042;53.150;5.898;2024-03-22T07:01:05;40.42;;;16.40;;
53145;SDS011;39042;53.150;5.898;2024-03-22T07:03:31;39.80;;;16.47;;
53145;SDS011;39042;53.150;5.898;2024-03-22T07:05:56;40.22;;;16.23;;
53145;SDS011;39042;53.150;5.898;2024-03-22T07:08:26;39.83;;;16.98;;
53145;SDS011;39042;53.150;5.898;2024-03-22T07:10:53;41.05;;;17.17;;
53145;SDS011;39042;53.150;5.898;2024-03-22T07:13:19;44.40;;;16.50;;
53145;SDS011;39042;53.150;5.898;2024-03-22T07:15:46;47.75;;;16.92;;
53145;SDS011;39042;53.150;5.898;2024-03-22T07:18:13;42.40;;;16.98;;
53145;SDS011;39042;53.150;5.898;2024-03-22T07:20:39;45.00;;;17.40;;
53145;SDS011;39042;53.150;5.898;2024-03-22T07:23:05;41.47;;;18.42;;
53145;SDS011;39042;53.150;5.898;2024-03-22T07:25:31;46.13;;;17.73;;
53145;SDS011;39042;53.150;5.898;2024-03-22T07:27:57;44.63;;;17.57;;
53145;SDS011;39042;53.150;5.898;2024-03-22T07:30:23;44.35;;;18.00;;
53145;SDS011;39042;53.150;5.898;2024-03-22T07:32:49;47.35;;;19.00;;
53145;SDS011;39042;53.150;5.898;2024-03-22T07:35:15;52.00;;;18.77;;
53145;SDS011;39042;53.150;5.898;2024-03-22T07:37:41;51.13;;;19.88;;
53145;SDS011;39042;53.150;5.898;2024-03-22T07:40:07;48.50;;;18.37;;
53145;SDS011;39042;53.150;5.898;2024-03-22T07:42:33;42.75;;;18.42;;
53145;SDS011;39042;53.150;5.898;2024-03-22T07:44:59;42.13;;;17.80;;
53145;SDS011;39042;53.150;5.898;2024-03-22T07:47:25;39.37;;;17.60;;
53145;SDS011;39042;53.150;5.898;2024-03-22T07:49:51;49.33;;;19.10;;
53145;SDS011;39042;53.150;5.898;2024-03-22T07:52:16;38.43;;;17.57;;
53145;SDS011;39042;53.150;5.898;2024-03-22T07:54:42;39.90;;;19.37;;
53145;SDS011;39042;53.150;5.898;2024-03-22T07:57:08;42.27;;;18.33;;
53145;SDS011;39042;53.150;5.898;2024-03-22T07:59:36;42.10;;;18.08;;
53145;SDS011;39042;53.150;5.898;2024-03-22T08:02:01;41.65;;;16.70;;
53145;SDS011;39042;53.150;5.898;2024-03-22T08:04:28;40.00;;;17.10;;
53145;SDS011;39042;53.150;5.898;2024-03-22T08:06:54;37.15;;;18.00;;
53145;SDS011;39042;53.150;5.898;2024-03-22T08:09:20;35.07;;;16.03;;
53145;SDS011;39042;53.150;5.898;2024-03-22T08:11:46;31.80;;;15.00;;
53145;SDS011;39042;53.150;5.898;2024-03-22T08:16:38;32.30;;;17.88;;
53145;SDS011;39042;53.150;5.898;2024-03-22T08:19:04;30.60;;;14.57;;
53145;SDS011;39042;53.150;5.898;2024-03-22T08:21:30;29.15;;;14.15;;
53145;SDS011;39042;53.150;5.898;2024-03-22T08:23:56;30.60;;;14.80;;
53145;SDS011;39042;53.150;5.898;2024-03-22T08:26:22;26.63;;;13.13;;
53145;SDS011;39042;53.150;5.898;2024-03-22T08:28:48;30.57;;;14.30;;
53145;SDS011;39042;53.150;5.898;2024-03-22T08:31:14;24.90;;;13.30;;
53145;SDS011;39042;53.150;5.898;2024-03-22T08:33:40;29.63;;;15.73;;
53145;SDS011;39042;53.150;5.898;2024-03-22T08:36:06;22.90;;;11.93;;
53145;SDS011;39042;53.150;5.898;2024-03-22T08:38:32;26.88;;;14.35;;
53145;SDS011;39042;53.150;5.898;2024-03-22T08:40:58;25.35;;;13.90;;
53145;SDS011;39042;53.150;5.898;2024-03-22T08:43:24;31.23;;;15.13;;
53145;SDS011;39042;53.150;5.898;2024-03-22T08:45:54;34.10;;;14.65;;
53145;SDS011;39042;53.150;5.898;2024-03-22T08:48:21;34.92;;;16.27;;
53145;SDS011;39042;53.150;5.898;2024-03-22T08:50:46;28.27;;;14.65;;
53145;SDS011;39042;53.150;5.898;2024-03-22T08:53:12;32.57;;;14.30;;
53145;SDS011;39042;53.150;5.898;2024-03-22T08:55:38;30.15;;;14.18;;
53145;SDS011;39042;53.150;5.898;2024-03-22T08:58:14;30.70;;;13.88;;
53145;SDS011;39042;53.150;5.898;2024-03-22T09:00:43;29.13;;;13.82;;
53145;SDS011;39042;53.150;5.898;2024-03-22T09:03:09;26.50;;;13.05;;
53145;SDS011;39042;53.150;5.898;2024-03-22T09:05:35;30.83;;;14.65;;
53145;SDS011;39042;53.150;5.898;2024-03-22T09:08:02;30.70;;;13.35;;
53145;SDS011;39042;53.150;5.898;2024-03-22T09:10:29;29.08;;;12.45;;
53145;SDS011;39042;53.150;5.898;2024-03-22T09:12:55;29.73;;;12.82;;
53145;SDS011;39042;53.150;5.898;2024-03-22T09:15:21;28.92;;;13.05;;
53145;SDS011;39042;53.150;5.898;2024-03-22T09:17:47;24.90;;;11.93;;
53145;SDS011;39042;53.150;5.898;2024-03-22T09:20:13;25.55;;;10.90;;
53145;SDS011;39042;53.150;5.898;2024-03-22T09:22:39;26.63;;;11.50;;
53145;SDS011;39042;53.150;5.898;2024-03-22T09:25:05;24.10;;;12.50;;
53145;SDS011;39042;53.150;5.898;2024-03-22T09:27:32;26.10;;;11.30;;
53145;SDS011;39042;53.150;5.898;2024-03-22T09:29:58;21.02;;;10.05;;
53145;SDS011;39042;53.150;5.898;2024-03-22T09:32:24;21.08;;;9.30;;
53145;SDS011;39042;53.150;5.898;2024-03-22T09:34:51;20.58;;;9.13;;
53145;SDS011;39042;53.150;5.898;2024-03-22T09:37:17;17.88;;;8.75;;
53145;SDS011;39042;53.150;5.898;2024-03-22T09:39:43;20.13;;;9.03;;
53145;SDS011;39042;53.150;5.898;2024-03-22T09:42:11;18.67;;;9.20;;
53145;SDS011;39042;53.150;5.898;2024-03-22T09:44:42;21.83;;;8.52;;
53145;SDS011;39042;53.150;5.898;2024-03-22T09:47:14;20.75;;;9.10;;
53145;SDS011;39042;53.150;5.898;2024-03-22T09:49:41;19.27;;;8.65;;
53145;SDS011;39042;53.150;5.898;2024-03-22T09:52:18;23.95;;;9.63;;
53145;SDS011;39042;53.150;5.898;2024-03-22T09:54:46;25.77;;;9.88;;
53145;SDS011;39042;53.150;5.898;2024-03-22T09:57:13;24.57;;;9.43;;
53145;SDS011;39042;53.150;5.898;2024-03-22T09:59:43;24.38;;;8.38;;
53145;SDS011;39042;53.150;5.898;2024-03-22T10:02:13;25.00;;;9.13;;
53145;SDS011;39042;53.150;5.898;2024-03-22T10:04:40;19.73;;;9.35;;
53145;SDS011;39042;53.150;5.898;2024-03-22T10:07:06;22.90;;;8.52;;
53145;SDS011;39042;53.150;5.898;2024-03-22T10:09:36;15.85;;;7.43;;
53145;SDS011;39042;53.150;5.898;2024-03-22T10:12:02;16.77;;;6.03;;
53145;SDS011;39042;53.150;5.898;2024-03-22T10:14:29;14.40;;;6.25;;
53145;SDS011;39042;53.150;5.898;2024-03-22T10:16:56;18.85;;;5.75;;
53145;SDS011;39042;53.150;5.898;2024-03-22T10:19:22;16.05;;;5.35;;
53145;SDS011;39042;53.150;5.898;2024-03-22T10:22:01;16.70;;;5.55;;
53145;SDS011;39042;53.150;5.898;2024-03-22T10:24:28;12.10;;;4.60;;
53145;SDS011;39042;53.150;5.898;2024-03-22T10:26:55;10.82;;;4.75;;
53145;SDS011;39042;53.150;5.898;2024-03-22T10:29:21;11.18;;;5.00;;
53145;SDS011;39042;53.150;5.898;2024-03-22T10:31:50;11.60;;;4.55;;
53145;SDS011;39042;53.150;5.898;2024-03-22T10:34:17;12.25;;;4.85;;
53145;SDS011;39042;53.150;5.898;2024-03-22T10:36:47;13.18;;;4.60;;
53145;SDS011;39042;53.150;5.898;2024-03-22T10:39:15;11.77;;;3.95;;
53145;SDS011;39042;53.150;5.898;2024-03-22T10:41:46;6.93;;;3.30;;
53145;SDS011;39042;53.150;5.898;2024-03-22T10:44:13;7.50;;;4.10;;
53145;SDS011;39042;53.150;5.898;2024-03-22T10:49:10;13.57;;;3.72;;
53145;SDS011;39042;53.150;5.898;2024-03-22T10:51:40;9.07;;;3.67;;
53145;SDS011;39042;53.150;5.898;2024-03-22T10:54:07;6.57;;;2.80;;
53145;SDS011;39042;53.150;5.898;2024-03-22T10:56:34;7.15;;;2.97;;
53145;SDS011;39042;53.150;5.898;2024-03-22T10:59:03;6.65;;;2.88;;
53145;SDS011;39042;53.150;5.898;2024-03-22T11:01:29;7.00;;;2.55;;
53145;SDS011;39042;53.150;5.898;2024-03-22T11:04:05;6.97;;;2.42;;
53145;SDS011;39042;53.150;5.898;2024-03-22T11:06:32;6.50;;;2.40;;
53145;SDS011;39042;53.150;5.898;2024-03-22T11:09:01;4.53;;;2.10;;
53145;SDS011;39042;53.150;5.898;2024-03-22T11:11:29;4.70;;;2.20;;
53145;SDS011;39042;53.150;5.898;2024-03-22T11:13:56;7.75;;;2.72;;
53145;SDS011;39042;53.150;5.898;2024-03-22T11:16:23;7.03;;;2.53;;
53145;SDS011;39042;53.150;5.898;2024-03-22T11:18:49;4.88;;;1.85;;
53145;SDS011;39042;53.150;5.898;2024-03-22T11:21:15;7.27;;;2.07;;
53145;SDS011;39042;53.150;5.898;2024-03-22T11:23:44;7.20;;;2.30;;
53145;SDS011;39042;53.150;5.898;2024-03-22T11:26:11;8.10;;;2.63;;
53145;SDS011;39042;53.150;5.898;2024-03-22T11:28:37;7.15;;;2.40;;
53145;SDS011;39042;53.150;5.898;2024-03-22T11:33:30;7.93;;;2.80;;
53145;SDS011;39042;53.150;5.898;2024-03-22T11:35:58;10.82;;;2.97;;
53145;SDS011;39042;53.150;5.898;2024-03-22T11:38:28;10.50;;;3.35;;
53145;SDS011;39042;53.150;5.898;2024-03-22T11:40:55;9.90;;;3.30;;
53145;SDS011;39042;53.150;5.898;2024-03-22T11:43:23;11.95;;;3.53;;
53145;SDS011;39042;53.150;5.898;2024-03-22T11:45:49;10.18;;;3.60;;
53145;SDS011;39042;53.150;5.898;2024-03-22T11:48:15;10.03;;;4.43;;
53145;SDS011;39042;53.150;5.898;2024-03-22T11:50:41;8.02;;;3.15;;
53145;SDS011;39042;53.150;5.898;2024-03-22T11:53:07;16.00;;;4.47;;
53145;SDS011;39042;53.150;5.898;2024-03-22T11:55:35;9.90;;;3.40;;
53145;SDS011;39042;53.150;5.898;2024-03-22T11:58:01;11.38;;;3.92;;
53145;SDS011;39042;53.150;5.898;2024-03-22T12:00:27;8.80;;;2.47;;
53145;SDS011;39042;53.150;5.898;2024-03-22T12:02:53;11.02;;;3.92;;
53145;SDS011;39042;53.150;5.898;2024-03-22T12:05:20;13.52;;;4.63;;
53145;SDS011;39042;53.150;5.898;2024-03-22T12:07:46;12.20;;;3.88;;
53145;SDS011;39042;53.150;5.898;2024-03-22T12:10:12;15.13;;;3.38;;
53145;SDS011;39042;53.150;5.898;2024-03-22T12:12:39;13.90;;;2.97;;
53145;SDS011;39042;53.150;5.898;2024-03-22T12:15:05;11.97;;;3.33;;
53145;SDS011;39042;53.150;5.898;2024-03-22T12:17:31;9.23;;;3.22;;
53145;SDS011;39042;53.150;5.898;2024-03-22T12:19:57;9.17;;;3.20;;
53145;SDS011;39042;53.150;5.898;2024-03-22T12:22:22;14.07;;;3.83;;
53145;SDS011;39042;53.150;5.898;2024-03-22T12:24:50;15.55;;;3.42;;
53145;SDS011;39042;53.150;5.898;2024-03-22T12:27:16;17.27;;;3.28;;
53145;SDS011;39042;53.150;5.898;2024-03-22T12:29:42;16.95;;;4.32;;
53145;SDS011;39042;53.150;5.898;2024-03-22T12:32:09;17.48;;;3.92;;
53145;SDS011;39042;53.150;5.898;2024-03-22T12:34:35;20.10;;;4.07;;
53145;SDS011;39042;53.150;5.898;2024-03-22T12:37:01;15.27;;;4.20;;
53145;SDS011;39042;53.150;5.898;2024-03-22T12:39:27;10.57;;;3.67;;
53145;SDS011;39042;53.150;5.898;2024-03-22T12:41:53;15.70;;;4.22;;
53145;SDS011;39042;53.150;5.898;2024-03-22T12:44:20;16.88;;;3.60;;
53145;SDS011;39042;53.150;5.898;2024-03-22T12:46:46;11.15;;;3.80;;
53145;SDS011;39042;53.150;5.898;2024-03-22T12:49:12;11.23;;;3.58;;
53145;SDS011;39042;53.150;5.898;2024-03-22T12:51:38;15.47;;;3.37;;
53145;SDS011;39042;53.150;5.898;2024-03-22T12:54:04;13.97;;;3.40;;
53145;SDS011;39042;53.150;5.898;2024-03-22T12:56:30;17.50;;;3.60;;
53145;SDS011;39042;53.150;5.898;2024-03-22T12:58:56;15.07;;;3.45;;
53145;SDS011;39042;53.150;5.898;2024-03-22T13:01:22;19.25;;;3.55;;
53145;SDS011;39042;53.150;5.898;2024-03-22T13:03:48;18.65;;;3.67;;
53145;SDS011;39042;53.150;5.898;2024-03-22T13:06:14;16.67;;;3.27;;
53145;SDS011;39042;53.150;5.898;2024-03-22T13:08:40;10.17;;;2.60;;
53145;SDS011;39042;53.150;5.898;2024-03-22T13:11:05;16.50;;;3.17;;
53145;SDS011;39042;53.150;5.898;2024-03-22T13:13:34;17.70;;;2.92;;
53145;SDS011;39042;53.150;5.898;2024-03-22T13:16:00;14.55;;;2.47;;
53145;SDS011;39042;53.150;5.898;2024-03-22T13:18:30;13.80;;;2.30;;
53145;SDS011;39042;53.150;5.898;2024-03-22T13:20:56;14.50;;;3.15;;
53145;SDS011;39042;53.150;5.898;2024-03-22T13:23:22;21.93;;;3.27;;
53145;SDS011;39042;53.150;5.898;2024-03-22T13:25:48;9.13;;;2.33;;
53145;SDS011;39042;53.150;5.898;2024-03-22T13:28:14;13.27;;;3.08;;
53145;SDS011;39042;53.150;5.898;2024-03-22T13:30:40;13.50;;;2.40;;
53145;SDS011;39042;53.150;5.898;2024-03-22T13:33:06;17.42;;;2.75;;
53145;SDS011;39042;53.150;5.898;2024-03-22T13:35:33;12.80;;;2.05;;
53145;SDS011;39042;53.150;5.898;2024-03-22T13:37:59;11.73;;;2.72;;
53145;SDS011;39042;53.150;5.898;2024-03-22T13:40:26;14.23;;;2.38;;
53145;SDS011;39042;53.150;5.898;2024-03-22T13:42:55;18.13;;;3.97;;
53145;SDS011;39042;53.150;5.898;2024-03-22T13:45:21;14.60;;;3.42;;
53145;SDS011;39042;53.150;5.898;2024-03-22T13:47:46;9.37;;;2.93;;
53145;SDS011;39042;53.150;5.898;2024-03-22T13:50:13;24.05;;;4.38;;
53145;SDS011;39042;53.150;5.898;2024-03-22T13:52:38;16.73;;;3.17;;
53145;SDS011;39042;53.150;5.898;2024-03-22T13:55:04;16.13;;;3.00;;
53145;SDS011;39042;53.150;5.898;2024-03-22T13:57:30;14.45;;;2.97;;
53145;SDS011;39042;53.150;5.898;2024-03-22T13:59:57;18.40;;;3.75;;
53145;SDS011;39042;53.150;5.898;2024-03-22T14:02:24;20.65;;;3.67;;
53145;SDS011;39042;53.150;5.898;2024-03-22T14:04:50;16.38;;;3.30;;
53145;SDS011;39042;53.150;5.898;2024-03-22T14:07:15;16.77;;;3.53;;
53145;SDS011;39042;53.150;5.898;2024-03-22T14:09:41;20.17;;;4.50;;
53145;SDS011;39042;53.150;5.898;2024-03-22T14:14:34;18.35;;;2.67;;
53145;SDS011;39042;53.150;5.898;2024-03-22T14:17:00;17.58;;;2.88;;
53145;SDS011;39042;53.150;5.898;2024-03-22T14:19:26;21.40;;;3.90;;
53145;SDS011;39042;53.150;5.898;2024-03-22T14:21:52;12.53;;;2.43;;
53145;SDS011;39042;53.150;5.898;2024-03-22T14:24:18;29.92;;;3.50;;
53145;SDS011;39042;53.150;5.898;2024-03-22T14:26:43;20.10;;;2.80;;
53145;SDS011;39042;53.150;5.898;2024-03-22T14:29:09;16.60;;;3.13;;
53145;SDS011;39042;53.150;5.898;2024-03-22T14:31:36;19.70;;;2.88;;
53145;SDS011;39042;53.150;5.898;2024-03-22T14:34:02;19.67;;;3.67;;